sensor_id;sensor_type;location;lat;lon;timestamp;P1;durP1;ratioP1;P2;durP2;ratioP2
20709;SDS011;10516;51.518;9.864;2022-09-02T00:01:32;1.88;;;1.00;;
20709;SDS011;10516;51.518;9.864;2022-09-02T00:04:03;1.35;;;1.20;;
20709;SDS011;10516;51.518;9.864;2022-09-02T00:06:31;1.48;;;1.00;;
20709;SDS011;10516;51.518;9.864;2022-09-02T00:08:58;1.83;;;1.10;;
20709;SDS011;10516;51.518;9.864;2022-09-02T00:11:26;0.80;;;0.80;;
20709;SDS011;10516;51.518;9.864;2022-09-02T00:13:54;3.75;;;1.35;;
20709;SDS011;10516;51.518;9.864;2022-09-02T00:16:21;1.75;;;0.95;;
20709;SDS011;10516;51.518;9.864;2022-09-02T00:18:49;3.85;;;1.20;;
20709;SDS011;10516;51.518;9.864;2022-09-02T00:21:16;2.55;;;1.10;;
20709;SDS011;10516;51.518;9.864;2022-09-02T00:23:43;1.38;;;1.17;;
20709;SDS011;10516;51.518;9.864;2022-09-02T00:26:09;1.88;;;1.13;;
20709;SDS011;10516;51.518;9.864;2022-09-02T00:28:36;1.45;;;0.98;;
20709;SDS011;10516;51.518;9.864;2022-09-02T00:31:05;3.05;;;1.00;;
20709;SDS011;10516;51.518;9.864;2022-09-02T00:33:31;3.33;;;1.65;;
20709;SDS011;10516;51.518;9.864;2022-09-02T00:36:03;1.17;;;1.13;;
20709;SDS011;10516;51.518;9.864;2022-09-02T00:38:29;1.27;;;1.00;;
20709;SDS011;10516;51.518;9.864;2022-09-02T00:40:59;1.65;;;1.02;;
20709;SDS011;10516;51.518;9.864;2022-09-02T00:43:48;1.95;;;1.55;;
20709;SDS011;10516;51.518;9.864;2022-09-02T00:46:17;2.05;;;1.23;;
20709;SDS011;10516;51.518;9.864;2022-09-02T00:48:47;2.17;;;1.40;;
20709;SDS011;10516;51.518;9.864;2022-09-02T00:51:20;1.35;;;1.02;;
20709;SDS011;10516;51.518;9.864;2022-09-02T00:53:46;1.77;;;1.40;;
20709;SDS011;10516;51.518;9.864;2022-09-02T00:56:14;2.47;;;1.30;;
20709;SDS011;10516;51.518;9.864;2022-09-02T00:58:44;1.63;;;1.40;;
20709;SDS011;10516;51.518;9.864;2022-09-02T01:01:10;1.02;;;0.88;;
20709;SDS011;10516;51.518;9.864;2022-09-02T01:03:36;1.38;;;0.60;;
20709;SDS011;10516;51.518;9.864;2022-09-02T01:06:02;1.52;;;1.38;;
20709;SDS011;10516;51.518;9.864;2022-09-02T01:08:28;1.30;;;0.90;;
20709;SDS011;10516;51.518;9.864;2022-09-02T01:10:58;3.25;;;1.38;;
20709;SDS011;10516;51.518;9.864;2022-09-02T01:13:25;1.52;;;1.00;;
20709;SDS011;10516;51.518;9.864;2022-09-02T01:15:57;1.58;;;1.15;;
20709;SDS011;10516;51.518;9.864;2022-09-02T01:18:48;1.17;;;1.17;;
20709;SDS011;10516;51.518;9.864;2022-09-02T01:21:16;1.02;;;0.93;;
20709;SDS011;10516;51.518;9.864;2022-09-02T01:23:42;4.45;;;1.10;;
20709;SDS011;10516;51.518;9.864;2022-09-02T01:26:09;3.53;;;1.15;;
20709;SDS011;10516;51.518;9.864;2022-09-02T01:28:35;9.35;;;2.42;;
20709;SDS011;10516;51.518;9.864;2022-09-02T01:31:01;2.30;;;1.23;;
20709;SDS011;10516;51.518;9.864;2022-09-02T01:33:27;1.60;;;1.23;;
20709;SDS011;10516;51.518;9.864;2022-09-02T01:35:53;1.80;;;1.08;;
20709;SDS011;10516;51.518;9.864;2022-09-02T01:38:19;1.48;;;1.20;;
20709;SDS011;10516;51.518;9.864;2022-09-02T01:40:45;1.40;;;1.20;;
20709;SDS011;10516;51.518;9.864;2022-09-02T01:43:13;2.33;;;1.30;;
20709;SDS011;10516;51.518;9.864;2022-09-02T01:45:42;1.75;;;1.10;;
20709;SDS011;10516;51.518;9.864;2022-09-02T01:48:09;1.90;;;1.00;;
20709;SDS011;10516;51.518;9.864;2022-09-02T01:50:40;3.05;;;1.83;;
20709;SDS011;10516;51.518;9.864;2022-09-02T01:53:07;3.53;;;1.02;;
20709;SDS011;10516;51.518;9.864;2022-09-02T01:55:34;2.25;;;1.30;;
20709;SDS011;10516;51.518;9.864;2022-09-02T01:58:00;2.28;;;1.27;;
20709;SDS011;10516;51.518;9.864;2022-09-02T02:00:26;3.33;;;1.35;;
20709;SDS011;10516;51.518;9.864;2022-09-02T02:02:53;2.53;;;1.08;;
20709;SDS011;10516;51.518;9.864;2022-09-02T02:05:19;2.55;;;1.52;;
20709;SDS011;10516;51.518;9.864;2022-09-02T02:07:45;1.80;;;1.10;;
20709;SDS011;10516;51.518;9.864;2022-09-02T02:10:11;2.53;;;1.50;;
20709;SDS011;10516;51.518;9.864;2022-09-02T02:12:39;1.70;;;1.02;;
20709;SDS011;10516;51.518;9.864;2022-09-02T02:15:06;1.20;;;1.10;;
20709;SDS011;10516;51.518;9.864;2022-09-02T02:17:34;1.92;;;1.20;;
20709;SDS011;10516;51.518;9.864;2022-09-02T02:19:59;4.18;;;1.58;;
20709;SDS011;10516;51.518;9.864;2022-09-02T02:22:25;1.85;;;0.90;;
20709;SDS011;10516;51.518;9.864;2022-09-02T02:24:51;4.38;;;1.50;;
20709;SDS011;10516;51.518;9.864;2022-09-02T02:27:17;1.83;;;1.20;;
20709;SDS011;10516;51.518;9.864;2022-09-02T02:29:43;0.95;;;0.93;;
20709;SDS011;10516;51.518;9.864;2022-09-02T02:32:08;2.33;;;1.33;;
20709;SDS011;10516;51.518;9.864;2022-09-02T02:34:37;3.05;;;1.33;;
20709;SDS011;10516;51.518;9.864;2022-09-02T02:37:03;2.33;;;1.75;;
20709;SDS011;10516;51.518;9.864;2022-09-02T02:39:31;1.42;;;1.30;;
20709;SDS011;10516;51.518;9.864;2022-09-02T02:41:56;1.20;;;0.90;;
20709;SDS011;10516;51.518;9.864;2022-09-02T02:44:22;2.20;;;1.33;;
20709;SDS011;10516;51.518;9.864;2022-09-02T02:46:48;1.38;;;1.23;;
20709;SDS011;10516;51.518;9.864;2022-09-02T02:49:14;2.40;;;1.60;;
20709;SDS011;10516;51.518;9.864;2022-09-02T02:51:39;1.92;;;1.40;;
20709;SDS011;10516;51.518;9.864;2022-09-02T02:54:05;1.48;;;1.08;;
20709;SDS011;10516;51.518;9.864;2022-09-02T02:56:30;2.92;;;1.50;;
20709;SDS011;10516;51.518;9.864;2022-09-02T02:58:57;1.30;;;1.20;;
20709;SDS011;10516;51.518;9.864;2022-09-02T03:01:25;1.60;;;1.50;;
20709;SDS011;10516;51.518;9.864;2022-09-02T03:03:50;2.10;;;1.60;;
20709;SDS011;10516;51.518;9.864;2022-09-02T03:06:17;3.05;;;1.52;;
20709;SDS011;10516;51.518;9.864;2022-09-02T03:08:42;1.65;;;1.35;;
20709;SDS011;10516;51.518;9.864;2022-09-02T03:11:07;2.40;;;1.33;;
20709;SDS011;10516;51.518;9.864;2022-09-02T03:13:34;3.67;;;1.70;;
20709;SDS011;10516;51.518;9.864;2022-09-02T03:15:59;2.45;;;1.35;;
20709;SDS011;10516;51.518;9.864;2022-09-02T03:18:25;5.13;;;2.03;;
20709;SDS011;10516;51.518;9.864;2022-09-02T03:20:51;3.38;;;1.20;;
20709;SDS011;10516;51.518;9.864;2022-09-02T03:23:16;1.58;;;1.42;;
20709;SDS011;10516;51.518;9.864;2022-09-02T03:25:43;5.55;;;1.80;;
20709;SDS011;10516;51.518;9.864;2022-09-02T03:28:10;1.33;;;1.23;;
20709;SDS011;10516;51.518;9.864;2022-09-02T03:30:37;2.30;;;1.23;;
20709;SDS011;10516;51.518;9.864;2022-09-02T03:33:04;3.88;;;1.85;;
20709;SDS011;10516;51.518;9.864;2022-09-02T03:35:30;1.30;;;1.20;;
20709;SDS011;10516;51.518;9.864;2022-09-02T03:37:57;1.45;;;1.27;;
20709;SDS011;10516;51.518;9.864;2022-09-02T03:40:24;2.03;;;1.42;;
20709;SDS011;10516;51.518;9.864;2022-09-02T03:42:52;1.85;;;1.45;;
20709;SDS011;10516;51.518;9.864;2022-09-02T03:45:18;4.80;;;1.80;;
20709;SDS011;10516;51.518;9.864;2022-09-02T03:47:44;3.03;;;1.30;;
20709;SDS011;10516;51.518;9.864;2022-09-02T03:50:31;1.48;;;1.33;;
20709;SDS011;10516;51.518;9.864;2022-09-02T03:53:01;2.10;;;1.30;;
20709;SDS011;10516;51.518;9.864;2022-09-02T03:55:28;3.58;;;1.35;;
20709;SDS011;10516;51.518;9.864;2022-09-02T03:57:54;2.78;;;1.40;;
20709;SDS011;10516;51.518;9.864;2022-09-02T04:00:21;2.63;;;1.77;;
20709;SDS011;10516;51.518;9.864;2022-09-02T04:02:54;1.85;;;1.55;;
20709;SDS011;10516;51.518;9.864;2022-09-02T04:05:19;1.27;;;1.17;;
20709;SDS011;10516;51.518;9.864;2022-09-02T04:07:46;2.97;;;1.90;;
20709;SDS011;10516;51.518;9.864;2022-09-02T04:10:15;1.08;;;1.08;;
20709;SDS011;10516;51.518;9.864;2022-09-02T04:12:40;1.70;;;1.52;;
20709;SDS011;10516;51.518;9.864;2022-09-02T04:15:06;1.60;;;1.50;;
20709;SDS011;10516;51.518;9.864;2022-09-02T04:17:37;3.17;;;1.50;;
20709;SDS011;10516;51.518;9.864;2022-09-02T04:20:05;4.40;;;1.70;;
20709;SDS011;10516;51.518;9.864;2022-09-02T04:22:32;2.90;;;1.42;;
20709;SDS011;10516;51.518;9.864;2022-09-02T04:24:57;1.85;;;1.75;;
20709;SDS011;10516;51.518;9.864;2022-09-02T04:27:23;3.40;;;1.70;;
20709;SDS011;10516;51.518;9.864;2022-09-02T04:29:48;1.75;;;1.30;;
20709;SDS011;10516;51.518;9.864;2022-09-02T04:32:14;3.60;;;1.63;;
20709;SDS011;10516;51.518;9.864;2022-09-02T04:34:39;2.05;;;1.55;;
20709;SDS011;10516;51.518;9.864;2022-09-02T04:37:05;2.83;;;1.45;;
20709;SDS011;10516;51.518;9.864;2022-09-02T04:39:30;4.47;;;1.80;;
20709;SDS011;10516;51.518;9.864;2022-09-02T04:41:56;3.47;;;1.60;;
20709;SDS011;10516;51.518;9.864;2022-09-02T04:44:22;1.85;;;1.73;;
20709;SDS011;10516;51.518;9.864;2022-09-02T04:46:49;5.32;;;1.50;;
20709;SDS011;10516;51.518;9.864;2022-09-02T04:49:15;2.80;;;1.73;;
20709;SDS011;10516;51.518;9.864;2022-09-02T04:51:40;2.03;;;1.50;;
20709;SDS011;10516;51.518;9.864;2022-09-02T04:54:06;3.25;;;1.65;;
20709;SDS011;10516;51.518;9.864;2022-09-02T04:56:32;1.85;;;1.50;;
20709;SDS011;10516;51.518;9.864;2022-09-02T04:58:58;2.75;;;1.65;;
20709;SDS011;10516;51.518;9.864;2022-09-02T05:01:24;5.28;;;1.58;;
20709;SDS011;10516;51.518;9.864;2022-09-02T05:03:52;2.70;;;1.75;;
20709;SDS011;10516;51.518;9.864;2022-09-02T05:06:22;3.85;;;2.13;;
20709;SDS011;10516;51.518;9.864;2022-09-02T05:08:51;1.75;;;1.63;;
20709;SDS011;10516;51.518;9.864;2022-09-02T05:11:19;1.50;;;1.40;;
20709;SDS011;10516;51.518;9.864;2022-09-02T05:13:48;1.83;;;1.73;;
20709;SDS011;10516;51.518;9.864;2022-09-02T05:16:18;4.82;;;1.67;;
20709;SDS011;10516;51.518;9.864;2022-09-02T05:18:49;1.45;;;1.35;;
20709;SDS011;10516;51.518;9.864;2022-09-02T05:21:15;1.40;;;1.30;;
20709;SDS011;10516;51.518;9.864;2022-09-02T05:23:41;1.95;;;1.55;;
20709;SDS011;10516;51.518;9.864;2022-09-02T05:26:07;1.30;;;1.20;;
20709;SDS011;10516;51.518;9.864;2022-09-02T05:28:35;2.15;;;1.52;;
20709;SDS011;10516;51.518;9.864;2022-09-02T05:31:02;3.13;;;1.40;;
20709;SDS011;10516;51.518;9.864;2022-09-02T05:33:29;4.57;;;2.17;;
20709;SDS011;10516;51.518;9.864;2022-09-02T05:35:56;4.15;;;2.30;;
20709;SDS011;10516;51.518;9.864;2022-09-02T05:38:21;2.65;;;1.90;;
20709;SDS011;10516;51.518;9.864;2022-09-02T05:40:47;3.05;;;2.00;;
20709;SDS011;10516;51.518;9.864;2022-09-02T05:43:12;3.17;;;2.50;;
20709;SDS011;10516;51.518;9.864;2022-09-02T05:45:37;4.43;;;2.28;;
20709;SDS011;10516;51.518;9.864;2022-09-02T05:48:03;3.38;;;2.25;;
20709;SDS011;10516;51.518;9.864;2022-09-02T05:50:48;4.40;;;2.03;;
20709;SDS011;10516;51.518;9.864;2022-09-02T05:53:14;6.40;;;2.53;;
20709;SDS011;10516;51.518;9.864;2022-09-02T05:55:39;3.33;;;1.95;;
20709;SDS011;10516;51.518;9.864;2022-09-02T05:58:05;2.63;;;2.42;;
20709;SDS011;10516;51.518;9.864;2022-09-02T06:00:30;4.65;;;2.42;;
20709;SDS011;10516;51.518;9.864;2022-09-02T06:02:56;6.55;;;2.30;;
20709;SDS011;10516;51.518;9.864;2022-09-02T06:05:21;3.63;;;1.95;;
20709;SDS011;10516;51.518;9.864;2022-09-02T06:07:47;4.97;;;2.20;;
20709;SDS011;10516;51.518;9.864;2022-09-02T06:10:12;5.60;;;2.30;;
20709;SDS011;10516;51.518;9.864;2022-09-02T06:12:38;2.80;;;2.58;;
20709;SDS011;10516;51.518;9.864;2022-09-02T06:15:03;3.17;;;1.80;;
20709;SDS011;10516;51.518;9.864;2022-09-02T06:17:29;4.40;;;2.58;;
20709;SDS011;10516;51.518;9.864;2022-09-02T06:19:54;11.30;;;2.38;;
20709;SDS011;10516;51.518;9.864;2022-09-02T06:22:20;2.28;;;2.08;;
20709;SDS011;10516;51.518;9.864;2022-09-02T06:24:45;10.15;;;2.83;;
20709;SDS011;10516;51.518;9.864;2022-09-02T06:27:11;9.73;;;2.38;;
20709;SDS011;10516;51.518;9.864;2022-09-02T06:29:36;6.65;;;2.63;;
20709;SDS011;10516;51.518;9.864;2022-09-02T06:32:02;3.65;;;2.20;;
20709;SDS011;10516;51.518;9.864;2022-09-02T06:34:27;5.22;;;2.65;;
20709;SDS011;10516;51.518;9.864;2022-09-02T06:36:53;4.63;;;2.85;;
20709;SDS011;10516;51.518;9.864;2022-09-02T06:39:20;6.25;;;2.58;;
20709;SDS011;10516;51.518;9.864;2022-09-02T06:41:47;6.68;;;2.55;;
20709;SDS011;10516;51.518;9.864;2022-09-02T06:44:13;7.38;;;2.58;;
20709;SDS011;10516;51.518;9.864;2022-09-02T06:46:42;5.15;;;2.22;;
20709;SDS011;10516;51.518;9.864;2022-09-02T06:49:10;6.00;;;2.65;;
20709;SDS011;10516;51.518;9.864;2022-09-02T06:51:39;4.55;;;2.55;;
20709;SDS011;10516;51.518;9.864;2022-09-02T06:54:08;3.42;;;2.10;;
20709;SDS011;10516;51.518;9.864;2022-09-02T06:56:35;3.85;;;2.47;;
20709;SDS011;10516;51.518;9.864;2022-09-02T06:59:02;5.47;;;2.85;;
20709;SDS011;10516;51.518;9.864;2022-09-02T07:01:29;3.08;;;2.30;;
20709;SDS011;10516;51.518;9.864;2022-09-02T07:03:57;6.20;;;2.88;;
20709;SDS011;10516;51.518;9.864;2022-09-02T07:06:45;2.50;;;2.30;;
20709;SDS011;10516;51.518;9.864;2022-09-02T07:09:14;12.10;;;3.25;;
20709;SDS011;10516;51.518;9.864;2022-09-02T07:11:41;12.13;;;3.58;;
20709;SDS011;10516;51.518;9.864;2022-09-02T07:14:11;7.07;;;2.70;;
20709;SDS011;10516;51.518;9.864;2022-09-02T07:16:41;8.77;;;3.05;;
20709;SDS011;10516;51.518;9.864;2022-09-02T07:19:08;7.80;;;3.40;;
20709;SDS011;10516;51.518;9.864;2022-09-02T07:21:34;13.52;;;4.03;;
20709;SDS011;10516;51.518;9.864;2022-09-02T07:24:00;2.97;;;2.13;;
20709;SDS011;10516;51.518;9.864;2022-09-02T07:26:26;6.22;;;2.40;;
20709;SDS011;10516;51.518;9.864;2022-09-02T07:28:52;10.15;;;2.75;;
20709;SDS011;10516;51.518;9.864;2022-09-02T07:31:18;7.45;;;2.92;;
20709;SDS011;10516;51.518;9.864;2022-09-02T07:33:44;5.03;;;2.13;;
20709;SDS011;10516;51.518;9.864;2022-09-02T07:36:11;10.80;;;3.00;;
20709;SDS011;10516;51.518;9.864;2022-09-02T07:38:37;5.78;;;2.85;;
20709;SDS011;10516;51.518;9.864;2022-09-02T07:41:05;3.58;;;2.90;;
20709;SDS011;10516;51.518;9.864;2022-09-02T07:43:31;7.93;;;3.22;;
20709;SDS011;10516;51.518;9.864;2022-09-02T07:45:57;4.70;;;3.10;;
20709;SDS011;10516;51.518;9.864;2022-09-02T07:48:25;6.35;;;2.83;;
20709;SDS011;10516;51.518;9.864;2022-09-02T07:50:53;6.85;;;3.28;;
20709;SDS011;10516;51.518;9.864;2022-09-02T07:53:18;4.15;;;2.55;;
20709;SDS011;10516;51.518;9.864;2022-09-02T07:55:44;4.78;;;2.55;;
20709;SDS011;10516;51.518;9.864;2022-09-02T07:58:11;4.72;;;2.75;;
20709;SDS011;10516;51.518;9.864;2022-09-02T08:00:37;5.97;;;2.13;;
20709;SDS011;10516;51.518;9.864;2022-09-02T08:03:04;7.47;;;3.30;;
20709;SDS011;10516;51.518;9.864;2022-09-02T08:05:31;5.13;;;2.45;;
20709;SDS011;10516;51.518;9.864;2022-09-02T08:07:57;3.65;;;3.00;;
20709;SDS011;10516;51.518;9.864;2022-09-02T08:10:24;2.58;;;2.15;;
20709;SDS011;10516;51.518;9.864;2022-09-02T08:12:53;5.40;;;2.42;;
20709;SDS011;10516;51.518;9.864;2022-09-02T08:15:20;5.13;;;3.10;;
20709;SDS011;10516;51.518;9.864;2022-09-02T08:17:48;6.32;;;3.20;;
20709;SDS011;10516;51.518;9.864;2022-09-02T08:20:14;6.55;;;2.63;;
20709;SDS011;10516;51.518;9.864;2022-09-02T08:22:41;6.15;;;3.35;;
20709;SDS011;10516;51.518;9.864;2022-09-02T08:25:07;7.00;;;2.95;;
20709;SDS011;10516;51.518;9.864;2022-09-02T08:27:33;3.80;;;2.60;;
20709;SDS011;10516;51.518;9.864;2022-09-02T08:29:59;5.80;;;2.58;;
20709;SDS011;10516;51.518;9.864;2022-09-02T08:32:25;3.53;;;2.58;;
20709;SDS011;10516;51.518;9.864;2022-09-02T08:34:52;5.57;;;2.72;;
20709;SDS011;10516;51.518;9.864;2022-09-02T08:37:17;6.70;;;2.80;;
20709;SDS011;10516;51.518;9.864;2022-09-02T08:39:43;3.80;;;2.75;;
20709;SDS011;10516;51.518;9.864;2022-09-02T08:42:14;6.03;;;3.00;;
20709;SDS011;10516;51.518;9.864;2022-09-02T08:44:56;4.95;;;2.90;;
20709;SDS011;10516;51.518;9.864;2022-09-02T08:47:29;7.05;;;2.78;;
20709;SDS011;10516;51.518;9.864;2022-09-02T08:50:03;7.28;;;2.63;;
20709;SDS011;10516;51.518;9.864;2022-09-02T08:55:06;9.43;;;2.60;;
20709;SDS011;10516;51.518;9.864;2022-09-02T08:57:36;4.05;;;2.58;;
20709;SDS011;10516;51.518;9.864;2022-09-02T09:00:02;5.68;;;2.63;;
20709;SDS011;10516;51.518;9.864;2022-09-02T09:05:43;11.27;;;3.47;;
20709;SDS011;10516;51.518;9.864;2022-09-02T09:08:24;4.13;;;2.65;;
20709;SDS011;10516;51.518;9.864;2022-09-02T09:16:16;4.22;;;2.33;;
20709;SDS011;10516;51.518;9.864;2022-09-02T09:18:47;3.08;;;2.15;;
20709;SDS011;10516;51.518;9.864;2022-09-02T09:21:17;5.10;;;2.25;;
20709;SDS011;10516;51.518;9.864;2022-09-02T09:23:43;8.68;;;2.60;;
20709;SDS011;10516;51.518;9.864;2022-09-02T09:26:11;3.67;;;2.53;;
20709;SDS011;10516;51.518;9.864;2022-09-02T09:28:41;7.57;;;2.38;;
20709;SDS011;10516;51.518;9.864;2022-09-02T09:31:12;2.63;;;2.00;;
20709;SDS011;10516;51.518;9.864;2022-09-02T09:34:00;2.75;;;2.00;;
20709;SDS011;10516;51.518;9.864;2022-09-02T09:39:21;6.10;;;2.10;;
20709;SDS011;10516;51.518;9.864;2022-09-02T09:41:49;5.53;;;1.98;;
20709;SDS011;10516;51.518;9.864;2022-09-02T09:47:10;3.22;;;2.10;;
20709;SDS011;10516;51.518;9.864;2022-09-02T09:49:41;3.85;;;2.05;;
20709;SDS011;10516;51.518;9.864;2022-09-02T09:52:06;7.45;;;2.40;;
20709;SDS011;10516;51.518;9.864;2022-09-02T09:54:32;4.38;;;2.30;;
20709;SDS011;10516;51.518;9.864;2022-09-02T09:57:11;7.13;;;2.33;;
20709;SDS011;10516;51.518;9.864;2022-09-02T09:59:41;6.53;;;2.30;;
20709;SDS011;10516;51.518;9.864;2022-09-02T10:02:21;4.07;;;1.85;;
20709;SDS011;10516;51.518;9.864;2022-09-02T10:04:47;1.90;;;1.80;;
20709;SDS011;10516;51.518;9.864;2022-09-02T10:07:13;4.75;;;2.00;;
20709;SDS011;10516;51.518;9.864;2022-09-02T10:09:39;6.38;;;2.22;;
20709;SDS011;10516;51.518;9.864;2022-09-02T10:12:09;4.20;;;2.08;;
20709;SDS011;10516;51.518;9.864;2022-09-02T10:14:38;4.95;;;2.25;;
20709;SDS011;10516;51.518;9.864;2022-09-02T10:25:43;1.88;;;1.70;;
20709;SDS011;10516;51.518;9.864;2022-09-02T10:31:21;3.55;;;1.90;;
20709;SDS011;10516;51.518;9.864;2022-09-02T10:41:49;2.60;;;2.10;;
20709;SDS011;10516;51.518;9.864;2022-09-02T10:44:26;2.90;;;1.88;;
20709;SDS011;10516;51.518;9.864;2022-09-02T10:47:08;1.95;;;1.75;;
20709;SDS011;10516;51.518;9.864;2022-09-02T10:57:48;3.65;;;1.70;;
20709;SDS011;10516;51.518;9.864;2022-09-02T11:00:19;7.95;;;2.00;;
20709;SDS011;10516;51.518;9.864;2022-09-02T11:05:41;2.08;;;1.85;;
20709;SDS011;10516;51.518;9.864;2022-09-02T11:08:13;3.58;;;2.05;;
20709;SDS011;10516;51.518;9.864;2022-09-02T11:11:19;4.55;;;1.90;;
20709;SDS011;10516;51.518;9.864;2022-09-02T11:16:28;1.52;;;1.40;;
20709;SDS011;10516;51.518;9.864;2022-09-02T11:24:15;7.38;;;3.10;;
20709;SDS011;10516;51.518;9.864;2022-09-02T11:32:31;6.07;;;1.90;;
20709;SDS011;10516;51.518;9.864;2022-09-02T11:35:08;5.40;;;1.92;;
20709;SDS011;10516;51.518;9.864;2022-09-02T11:37:40;8.73;;;2.05;;
20709;SDS011;10516;51.518;9.864;2022-09-02T11:40:11;2.85;;;2.28;;
20709;SDS011;10516;51.518;9.864;2022-09-02T11:53:48;6.60;;;2.08;;
20709;SDS011;10516;51.518;9.864;2022-09-02T11:56:25;4.95;;;1.63;;
20709;SDS011;10516;51.518;9.864;2022-09-02T11:58:55;4.40;;;1.63;;
20709;SDS011;10516;51.518;9.864;2022-09-02T12:01:21;2.22;;;1.73;;
20709;SDS011;10516;51.518;9.864;2022-09-02T12:03:53;3.67;;;1.73;;
20709;SDS011;10516;51.518;9.864;2022-09-02T12:06:21;4.10;;;1.92;;
20709;SDS011;10516;51.518;9.864;2022-09-02T12:14:04;3.22;;;1.77;;
20709;SDS011;10516;51.518;9.864;2022-09-02T12:16:34;5.53;;;1.67;;
20709;SDS011;10516;51.518;9.864;2022-09-02T12:21:32;2.60;;;1.60;;
20709;SDS011;10516;51.518;9.864;2022-09-02T12:26:29;2.33;;;1.45;;
20709;SDS011;10516;51.518;9.864;2022-09-02T12:31:46;4.05;;;1.90;;
20709;SDS011;10516;51.518;9.864;2022-09-02T12:36:48;3.97;;;1.75;;
20709;SDS011;10516;51.518;9.864;2022-09-02T12:47:35;2.13;;;1.63;;
20709;SDS011;10516;51.518;9.864;2022-09-02T12:55:59;3.35;;;1.30;;
20709;SDS011;10516;51.518;9.864;2022-09-02T12:58:55;2.05;;;1.60;;
20709;SDS011;10516;51.518;9.864;2022-09-02T13:34:10;5.20;;;1.70;;
20709;SDS011;10516;51.518;9.864;2022-09-02T13:36:44;3.70;;;1.95;;
20709;SDS011;10516;51.518;9.864;2022-09-02T13:39:17;7.75;;;2.03;;
20709;SDS011;10516;51.518;9.864;2022-09-02T13:41:44;2.10;;;1.70;;
20709;SDS011;10516;51.518;9.864;2022-09-02T13:44:20;3.10;;;1.55;;
20709;SDS011;10516;51.518;9.864;2022-09-02T13:46:56;2.15;;;1.70;;
20709;SDS011;10516;51.518;9.864;2022-09-02T13:49:35;6.10;;;2.35;;
20709;SDS011;10516;51.518;9.864;2022-09-02T13:52:04;3.65;;;2.05;;
20709;SDS011;10516;51.518;9.864;2022-09-02T13:54:36;5.40;;;1.67;;
20709;SDS011;10516;51.518;9.864;2022-09-02T13:57:05;8.05;;;2.08;;
20709;SDS011;10516;51.518;9.864;2022-09-02T13:59:35;4.93;;;1.67;;
20709;SDS011;10516;51.518;9.864;2022-09-02T14:02:36;3.85;;;1.55;;
20709;SDS011;10516;51.518;9.864;2022-09-02T14:05:09;3.78;;;1.52;;
20709;SDS011;10516;51.518;9.864;2022-09-02T14:07:40;5.18;;;1.80;;
20709;SDS011;10516;51.518;9.864;2022-09-02T14:10:09;2.53;;;1.90;;
20709;SDS011;10516;51.518;9.864;2022-09-02T14:12:37;4.97;;;1.33;;
20709;SDS011;10516;51.518;9.864;2022-09-02T14:15:05;2.22;;;1.88;;
20709;SDS011;10516;51.518;9.864;2022-09-02T14:17:32;5.05;;;1.73;;
20709;SDS011;10516;51.518;9.864;2022-09-02T14:20:14;4.25;;;1.55;;
20709;SDS011;10516;51.518;9.864;2022-09-02T14:22:53;2.30;;;1.60;;
20709;SDS011;10516;51.518;9.864;2022-09-02T14:25:21;1.33;;;1.20;;
20709;SDS011;10516;51.518;9.864;2022-09-02T14:27:48;13.32;;;2.13;;
20709;SDS011;10516;51.518;9.864;2022-09-02T14:30:35;3.30;;;1.50;;
20709;SDS011;10516;51.518;9.864;2022-09-02T14:41:11;2.72;;;1.88;;
20709;SDS011;10516;51.518;9.864;2022-09-02T14:46:27;35.95;;;4.45;;
20709;SDS011;10516;51.518;9.864;2022-09-02T14:49:00;93.45;;;8.20;;
20709;SDS011;10516;51.518;9.864;2022-09-02T14:51:37;9.88;;;2.13;;
20709;SDS011;10516;51.518;9.864;2022-09-02T14:54:03;2.63;;;1.40;;
20709;SDS011;10516;51.518;9.864;2022-09-02T14:56:46;3.33;;;2.10;;
20709;SDS011;10516;51.518;9.864;2022-09-02T14:59:14;14.77;;;2.28;;
20709;SDS011;10516;51.518;9.864;2022-09-02T15:01:40;8.52;;;1.90;;
20709;SDS011;10516;51.518;9.864;2022-09-02T15:04:10;3.38;;;1.75;;
20709;SDS011;10516;51.518;9.864;2022-09-02T15:06:37;23.20;;;2.90;;
20709;SDS011;10516;51.518;9.864;2022-09-02T15:09:07;7.05;;;1.98;;
20709;SDS011;10516;51.518;9.864;2022-09-02T15:11:36;28.05;;;2.80;;
20709;SDS011;10516;51.518;9.864;2022-09-02T15:14:06;2.05;;;1.65;;
20709;SDS011;10516;51.518;9.864;2022-09-02T15:16:32;3.92;;;1.60;;
20709;SDS011;10516;51.518;9.864;2022-09-02T15:18:57;3.97;;;1.90;;
20709;SDS011;10516;51.518;9.864;2022-09-02T15:21:26;2.58;;;1.40;;
20709;SDS011;10516;51.518;9.864;2022-09-02T15:23:54;1.73;;;1.63;;
20709;SDS011;10516;51.518;9.864;2022-09-02T15:26:47;3.75;;;1.92;;
20709;SDS011;10516;51.518;9.864;2022-09-02T15:29:13;5.40;;;1.33;;
20709;SDS011;10516;51.518;9.864;2022-09-02T15:31:39;6.05;;;1.90;;
20709;SDS011;10516;51.518;9.864;2022-09-02T15:34:05;2.35;;;1.70;;
20709;SDS011;10516;51.518;9.864;2022-09-02T15:36:31;4.72;;;1.65;;
20709;SDS011;10516;51.518;9.864;2022-09-02T15:38:56;3.47;;;1.38;;
20709;SDS011;10516;51.518;9.864;2022-09-02T15:41:22;6.82;;;1.95;;
20709;SDS011;10516;51.518;9.864;2022-09-02T15:43:50;4.82;;;1.52;;
20709;SDS011;10516;51.518;9.864;2022-09-02T15:46:23;4.90;;;1.60;;
20709;SDS011;10516;51.518;9.864;2022-09-02T15:48:49;5.40;;;1.77;;
20709;SDS011;10516;51.518;9.864;2022-09-02T15:51:19;1.42;;;1.33;;
20709;SDS011;10516;51.518;9.864;2022-09-02T15:53:51;2.47;;;1.73;;
20709;SDS011;10516;51.518;9.864;2022-09-02T15:56:28;1.80;;;1.70;;
20709;SDS011;10516;51.518;9.864;2022-09-02T15:58:56;4.00;;;1.77;;
20709;SDS011;10516;51.518;9.864;2022-09-02T16:01:26;4.63;;;1.40;;
20709;SDS011;10516;51.518;9.864;2022-09-02T16:03:55;3.38;;;1.48;;
20709;SDS011;10516;51.518;9.864;2022-09-02T16:06:22;6.85;;;1.80;;
20709;SDS011;10516;51.518;9.864;2022-09-02T16:08:48;5.55;;;1.48;;
20709;SDS011;10516;51.518;9.864;2022-09-02T16:11:13;3.85;;;1.80;;
20709;SDS011;10516;51.518;9.864;2022-09-02T16:13:38;3.88;;;1.85;;
20709;SDS011;10516;51.518;9.864;2022-09-02T16:16:06;3.78;;;1.48;;
20709;SDS011;10516;51.518;9.864;2022-09-02T16:18:34;1.83;;;1.52;;
20709;SDS011;10516;51.518;9.864;2022-09-02T16:21:00;2.65;;;1.70;;
20709;SDS011;10516;51.518;9.864;2022-09-02T16:23:26;2.10;;;1.48;;
20709;SDS011;10516;51.518;9.864;2022-09-02T16:26:08;3.22;;;1.38;;
20709;SDS011;10516;51.518;9.864;2022-09-02T16:28:37;3.30;;;1.65;;
20709;SDS011;10516;51.518;9.864;2022-09-02T16:31:05;3.75;;;2.03;;
20709;SDS011;10516;51.518;9.864;2022-09-02T16:33:31;5.10;;;1.80;;
20709;SDS011;10516;51.518;9.864;2022-09-02T16:36:00;1.75;;;1.13;;
20709;SDS011;10516;51.518;9.864;2022-09-02T16:38:26;2.85;;;1.50;;
20709;SDS011;10516;51.518;9.864;2022-09-02T16:40:55;6.25;;;1.30;;
20709;SDS011;10516;51.518;9.864;2022-09-02T16:43:22;3.33;;;2.13;;
20709;SDS011;10516;51.518;9.864;2022-09-02T16:45:48;3.90;;;1.80;;
20709;SDS011;10516;51.518;9.864;2022-09-02T16:48:17;5.13;;;1.67;;
20709;SDS011;10516;51.518;9.864;2022-09-02T16:50:44;2.97;;;1.50;;
20709;SDS011;10516;51.518;9.864;2022-09-02T16:53:10;2.50;;;1.45;;
20709;SDS011;10516;51.518;9.864;2022-09-02T16:55:39;4.65;;;1.20;;
20709;SDS011;10516;51.518;9.864;2022-09-02T16:58:06;1.58;;;1.45;;
20709;SDS011;10516;51.518;9.864;2022-09-02T17:00:34;11.45;;;1.83;;
20709;SDS011;10516;51.518;9.864;2022-09-02T17:03:00;8.50;;;1.88;;
20709;SDS011;10516;51.518;9.864;2022-09-02T17:05:25;4.60;;;1.60;;
20709;SDS011;10516;51.518;9.864;2022-09-02T17:07:51;3.88;;;1.67;;
20709;SDS011;10516;51.518;9.864;2022-09-02T17:10:19;2.85;;;1.13;;
20709;SDS011;10516;51.518;9.864;2022-09-02T17:12:45;6.35;;;2.00;;
20709;SDS011;10516;51.518;9.864;2022-09-02T17:15:10;6.05;;;2.10;;
20709;SDS011;10516;51.518;9.864;2022-09-02T17:17:36;9.30;;;2.28;;
20709;SDS011;10516;51.518;9.864;2022-09-02T17:20:04;3.00;;;1.48;;
20709;SDS011;10516;51.518;9.864;2022-09-02T17:22:29;6.55;;;2.03;;